sensor_id;sensor_type;location;lat;lon;timestamp;temperature;humidity
20446;DHT22;10382;49.140;9.234;2023-10-19T00:01:25;14.00;99.90
20446;DHT22;10382;49.140;9.234;2023-10-19T00:03:53;14.10;99.90
20446;DHT22;10382;49.140;9.234;2023-10-19T00:06:21;14.10;99.90
20446;DHT22;10382;49.140;9.234;2023-10-19T00:08:48;14.20;99.90
20446;DHT22;10382;49.140;9.234;2023-10-19T00:11:17;14.30;99.90
20446;DHT22;10382;49.140;9.234;2023-10-19T00:13:49;14.30;99.90
20446;DHT22;10382;49.140;9.234;2023-10-19T00:16:16;14.40;99.90
20446;DHT22;10382;49.140;9.234;2023-10-19T00:18:43;14.40;99.90
20446;DHT22;10382;49.140;9.234;2023-10-19T00:21:10;14.40;99.90
20446;DHT22;10382;49.140;9.234;2023-10-19T00:23:45;14.50;99.90
20446;DHT22;10382;49.140;9.234;2023-10-19T00:26:15;14.50;99.90
20446;DHT22;10382;49.140;9.234;2023-10-19T00:28:44;14.50;99.90
20446;DHT22;10382;49.140;9.234;2023-10-19T00:31:13;14.60;99.90
20446;DHT22;10382;49.140;9.234;2023-10-19T00:33:40;14.40;99.90
20446;DHT22;10382;49.140;9.234;2023-10-19T00:36:07;14.30;99.90
20446;DHT22;10382;49.140;9.234;2023-10-19T00:38:35;14.30;99.90
20446;DHT22;10382;49.140;9.234;2023-10-19T00:41:16;14.30;99.90
20446;DHT22;10382;49.140;9.234;2023-10-19T00:43:48;14.40;99.90
20446;DHT22;10382;49.140;9.234;2023-10-19T00:46:18;14.40;99.90
20446;DHT22;10382;49.140;9.234;2023-10-19T00:48:51;14.40;99.90
20446;DHT22;10382;49.140;9.234;2023-10-19T00:51:21;14.40;99.90
20446;DHT22;10382;49.140;9.234;2023-10-19T00:54:09;14.40;99.90
20446;DHT22;10382;49.140;9.234;2023-10-19T00:56:42;14.40;99.90
20446;DHT22;10382;49.140;9.234;2023-10-19T00:59:12;14.30;99.90
20446;DHT22;10382;49.140;9.234;2023-10-19T01:01:41;14.40;99.90
20446;DHT22;10382;49.140;9.234;2023-10-19T01:04:14;14.40;99.90
20446;DHT22;10382;49.140;9.234;2023-10-19T01:06:45;14.30;99.90
20446;DHT22;10382;49.140;9.234;2023-10-19T01:09:26;14.30;99.90
20446;DHT22;10382;49.140;9.234;2023-10-19T01:11:53;14.20;99.90
20446;DHT22;10382;49.140;9.234;2023-10-19T01:14:24;14.00;99.90
20446;DHT22;10382;49.140;9.234;2023-10-19T01:16:54;14.00;99.90
20446;DHT22;10382;49.140;9.234;2023-10-19T01:19:22;14.00;99.90
20446;DHT22;10382;49.140;9.234;2023-10-19T01:21:49;14.00;99.90
20446;DHT22;10382;49.140;9.234;2023-10-19T01:24:20;14.10;99.90
20446;DHT22;10382;49.140;9.234;2023-10-19T01:26:57;14.20;99.90
20446;DHT22;10382;49.140;9.234;2023-10-19T01:29:25;14.30;99.90
20446;DHT22;10382;49.140;9.234;2023-10-19T01:31:53;14.40;99.90
20446;DHT22;10382;49.140;9.234;2023-10-19T01:34:31;14.50;99.90
20446;DHT22;10382;49.140;9.234;2023-10-19T01:36:59;14.60;99.90
20446;DHT22;10382;49.140;9.234;2023-10-19T01:39:30;14.60;99.90
20446;DHT22;10382;49.140;9.234;2023-10-19T01:41:56;14.70;99.90
20446;DHT22;10382;49.140;9.234;2023-10-19T01:44:24;14.70;99.90
20446;DHT22;10382;49.140;9.234;2023-10-19T01:46:51;14.70;99.90
20446;DHT22;10382;49.140;9.234;2023-10-19T01:49:18;14.70;99.90
20446;DHT22;10382;49.140;9.234;2023-10-19T01:51:52;14.70;99.90
20446;DHT22;10382;49.140;9.234;2023-10-19T01:54:19;14.80;99.90
20446;DHT22;10382;49.140;9.234;2023-10-19T01:56:51;14.80;99.90
20446;DHT22;10382;49.140;9.234;2023-10-19T01:59:21;14.80;99.90
20446;DHT22;10382;49.140;9.234;2023-10-19T02:01:47;14.90;99.90
20446;DHT22;10382;49.140;9.234;2023-10-19T02:04:15;14.90;99.90
20446;DHT22;10382;49.140;9.234;2023-10-19T02:06:41;14.90;99.90
20446;DHT22;10382;49.140;9.234;2023-10-19T02:09:12;14.90;99.90
20446;DHT22;10382;49.140;9.234;2023-10-19T02:11:52;14.80;99.90
20446;DHT22;10382;49.140;9.234;2023-10-19T02:14:21;14.90;99.90
20446;DHT22;10382;49.140;9.234;2023-10-19T02:16:48;14.80;99.90
20446;DHT22;10382;49.140;9.234;2023-10-19T02:19:18;14.80;99.90
20446;DHT22;10382;49.140;9.234;2023-10-19T02:21:45;14.80;99.90
20446;DHT22;10382;49.140;9.234;2023-10-19T02:24:14;14.60;99.90
20446;DHT22;10382;49.140;9.234;2023-10-19T02:26:41;14.50;99.90
20446;DHT22;10382;49.140;9.234;2023-10-19T02:29:10;14.50;99.90
20446;DHT22;10382;49.140;9.234;2023-10-19T02:31:36;14.30;99.90
20446;DHT22;10382;49.140;9.234;2023-10-19T02:34:06;14.20;99.90
20446;DHT22;10382;49.140;9.234;2023-10-19T02:36:33;14.20;99.90
20446;DHT22;10382;49.140;9.234;2023-10-19T02:39:03;14.10;99.90
20446;DHT22;10382;49.140;9.234;2023-10-19T02:41:33;14.00;99.90
20446;DHT22;10382;49.140;9.234;2023-10-19T02:44:02;14.00;99.90
20446;DHT22;10382;49.140;9.234;2023-10-19T02:46:35;14.00;99.90
20446;DHT22;10382;49.140;9.234;2023-10-19T02:49:04;14.00;99.90
20446;DHT22;10382;49.140;9.234;2023-10-19T02:51:35;13.90;99.90
20446;DHT22;10382;49.140;9.234;2023-10-19T02:54:03;13.80;99.90
20446;DHT22;10382;49.140;9.234;2023-10-19T02:56:29;13.80;99.90
20446;DHT22;10382;49.140;9.234;2023-10-19T02:58:56;13.60;99.90
20446;DHT22;10382;49.140;9.234;2023-10-19T03:01:29;13.60;99.90
20446;DHT22;10382;49.140;9.234;2023-10-19T03:04:01;13.60;99.90
20446;DHT22;10382;49.140;9.234;2023-10-19T03:06:27;13.60;99.90
20446;DHT22;10382;49.140;9.234;2023-10-19T03:08:58;13.60;99.90
20446;DHT22;10382;49.140;9.234;2023-10-19T03:11:26;13.70;99.90
20446;DHT22;10382;49.140;9.234;2023-10-19T03:13:53;13.80;99.90
20446;DHT22;10382;49.140;9.234;2023-10-19T03:16:20;14.00;99.90
20446;DHT22;10382;49.140;9.234;2023-10-19T03:18:49;14.10;99.90
20446;DHT22;10382;49.140;9.234;2023-10-19T03:21:16;14.20;99.90
20446;DHT22;10382;49.140;9.234;2023-10-19T03:23:44;14.30;99.90
20446;DHT22;10382;49.140;9.234;2023-10-19T03:26:11;14.50;99.90
20446;DHT22;10382;49.140;9.234;2023-10-19T03:28:53;14.70;99.90
20446;DHT22;10382;49.140;9.234;2023-10-19T03:31:21;14.80;99.90
20446;DHT22;10382;49.140;9.234;2023-10-19T03:33:48;14.90;99.90
20446;DHT22;10382;49.140;9.234;2023-10-19T03:36:21;15.00;99.90
20446;DHT22;10382;49.140;9.234;2023-10-19T03:38:49;15.10;99.90
20446;DHT22;10382;49.140;9.234;2023-10-19T03:41:17;15.10;99.90
20446;DHT22;10382;49.140;9.234;2023-10-19T03:43:47;15.20;99.90
20446;DHT22;10382;49.140;9.234;2023-10-19T03:46:15;15.20;99.90
20446;DHT22;10382;49.140;9.234;2023-10-19T03:48:48;15.20;99.90
20446;DHT22;10382;49.140;9.234;2023-10-19T03:51:15;15.10;99.90
20446;DHT22;10382;49.140;9.234;2023-10-19T03:53:44;15.10;99.90
20446;DHT22;10382;49.140;9.234;2023-10-19T03:56:19;15.00;99.90
20446;DHT22;10382;49.140;9.234;2023-10-19T03:58:46;15.00;99.90
20446;DHT22;10382;49.140;9.234;2023-10-19T04:01:16;15.00;99.90
20446;DHT22;10382;49.140;9.234;2023-10-19T04:03:45;15.00;99.90
20446;DHT22;10382;49.140;9.234;2023-10-19T04:06:12;15.00;99.90
20446;DHT22;10382;49.140;9.234;2023-10-19T04:08:40;15.00;99.90
20446;DHT22;10382;49.140;9.234;2023-10-19T04:11:12;15.10;99.90
20446;DHT22;10382;49.140;9.234;2023-10-19T04:13:48;15.10;99.90
20446;DHT22;10382;49.140;9.234;2023-10-19T04:16:18;15.00;99.90
20446;DHT22;10382;49.140;9.234;2023-10-19T04:18:46;15.00;99.90
20446;DHT22;10382;49.140;9.234;2023-10-19T04:21:14;15.10;99.90
20446;DHT22;10382;49.140;9.234;2023-10-19T04:23:41;15.10;99.90
20446;DHT22;10382;49.140;9.234;2023-10-19T04:26:08;15.10;99.90
20446;DHT22;10382;49.140;9.234;2023-10-19T04:28:40;15.10;99.90
20446;DHT22;10382;49.140;9.234;2023-10-19T04:31:16;15.10;99.90
20446;DHT22;10382;49.140;9.234;2023-10-19T04:33:44;15.20;99.90
20446;DHT22;10382;49.140;9.234;2023-10-19T04:36:13;15.20;99.90
20446;DHT22;10382;49.140;9.234;2023-10-19T04:38:41;15.10;99.90
20446;DHT22;10382;49.140;9.234;2023-10-19T04:41:10;15.20;99.90
20446;DHT22;10382;49.140;9.234;2023-10-19T04:43:39;15.20;99.90
20446;DHT22;10382;49.140;9.234;2023-10-19T04:46:09;15.10;99.90
20446;DHT22;10382;49.140;9.234;2023-10-19T04:48:38;15.10;99.90
20446;DHT22;10382;49.140;9.234;2023-10-19T04:51:08;15.10;99.90
20446;DHT22;10382;49.140;9.234;2023-10-19T04:53:36;15.00;99.90
20446;DHT22;10382;49.140;9.234;2023-10-19T04:56:04;15.00;99.90
20446;DHT22;10382;49.140;9.234;2023-10-19T04:58:32;15.00;99.90
20446;DHT22;10382;49.140;9.234;2023-10-19T05:01:00;14.90;99.90
20446;DHT22;10382;49.140;9.234;2023-10-19T05:03:29;14.90;99.90
20446;DHT22;10382;49.140;9.234;2023-10-19T05:05:56;14.80;99.90
20446;DHT22;10382;49.140;9.234;2023-10-19T05:08:23;14.80;99.90
20446;DHT22;10382;49.140;9.234;2023-10-19T05:10:52;14.80;99.90
20446;DHT22;10382;49.140;9.234;2023-10-19T05:13:19;14.80;99.90
20446;DHT22;10382;49.140;9.234;2023-10-19T05:15:46;14.70;99.90
20446;DHT22;10382;49.140;9.234;2023-10-19T05:18:15;14.70;99.90
20446;DHT22;10382;49.140;9.234;2023-10-19T05:20:42;14.60;99.90
20446;DHT22;10382;49.140;9.234;2023-10-19T05:23:09;14.60;99.90
20446;DHT22;10382;49.140;9.234;2023-10-19T05:25:36;14.60;99.90
20446;DHT22;10382;49.140;9.234;2023-10-19T05:28:04;14.60;99.90
20446;DHT22;10382;49.140;9.234;2023-10-19T05:30:31;14.50;99.90
20446;DHT22;10382;49.140;9.234;2023-10-19T05:32:58;14.50;99.90
20446;DHT22;10382;49.140;9.234;2023-10-19T05:35:28;14.50;99.90
20446;DHT22;10382;49.140;9.234;2023-10-19T05:37:55;14.50;99.90
20446;DHT22;10382;49.140;9.234;2023-10-19T05:40:23;14.40;99.90
20446;DHT22;10382;49.140;9.234;2023-10-19T05:42:55;14.40;99.90
20446;DHT22;10382;49.140;9.234;2023-10-19T05:45:22;14.40;99.90
20446;DHT22;10382;49.140;9.234;2023-10-19T05:47:48;14.30;99.90
20446;DHT22;10382;49.140;9.234;2023-10-19T05:50:15;14.30;99.90
20446;DHT22;10382;49.140;9.234;2023-10-19T05:52:44;14.30;99.90
20446;DHT22;10382;49.140;9.234;2023-10-19T05:55:10;14.20;99.90
20446;DHT22;10382;49.140;9.234;2023-10-19T05:57:38;14.20;99.90
20446;DHT22;10382;49.140;9.234;2023-10-19T06:00:08;14.20;99.90
20446;DHT22;10382;49.140;9.234;2023-10-19T06:02:39;14.30;99.90
20446;DHT22;10382;49.140;9.234;2023-10-19T06:05:06;14.20;99.90
20446;DHT22;10382;49.140;9.234;2023-10-19T06:07:33;14.10;99.90
20446;DHT22;10382;49.140;9.234;2023-10-19T06:10:01;14.20;99.90
20446;DHT22;10382;49.140;9.234;2023-10-19T06:12:31;14.20;99.90
20446;DHT22;10382;49.140;9.234;2023-10-19T06:14:58;14.30;99.90
20446;DHT22;10382;49.140;9.234;2023-10-19T06:17:25;14.30;99.90
20446;DHT22;10382;49.140;9.234;2023-10-19T06:19:54;14.30;99.90
20446;DHT22;10382;49.140;9.234;2023-10-19T06:22:22;14.40;99.90
20446;DHT22;10382;49.140;9.234;2023-10-19T06:24:48;14.30;99.90
20446;DHT22;10382;49.140;9.234;2023-10-19T06:27:16;14.30;99.90
20446;DHT22;10382;49.140;9.234;2023-10-19T06:29:43;14.30;99.90
20446;DHT22;10382;49.140;9.234;2023-10-19T06:32:10;14.30;99.90
20446;DHT22;10382;49.140;9.234;2023-10-19T06:34:38;14.30;99.90
20446;DHT22;10382;49.140;9.234;2023-10-19T06:37:06;14.40;99.90
20446;DHT22;10382;49.140;9.234;2023-10-19T06:39:36;14.50;99.90
20446;DHT22;10382;49.140;9.234;2023-10-19T06:42:06;14.50;99.90
20446;DHT22;10382;49.140;9.234;2023-10-19T06:44:37;14.60;99.90
20446;DHT22;10382;49.140;9.234;2023-10-19T06:47:03;14.70;99.90
20446;DHT22;10382;49.140;9.234;2023-10-19T06:49:32;14.70;99.90
20446;DHT22;10382;49.140;9.234;2023-10-19T06:52:00;14.80;99.90
20446;DHT22;10382;49.140;9.234;2023-10-19T06:54:30;14.90;99.90
20446;DHT22;10382;49.140;9.234;2023-10-19T06:56:57;14.90;99.90
20446;DHT22;10382;49.140;9.234;2023-10-19T06:59:24;15.00;99.90
20446;DHT22;10382;49.140;9.234;2023-10-19T07:01:52;15.10;99.90
20446;DHT22;10382;49.140;9.234;2023-10-19T07:04:19;15.10;99.90
20446;DHT22;10382;49.140;9.234;2023-10-19T07:06:46;15.20;99.90
20446;DHT22;10382;49.140;9.234;2023-10-19T07:09:13;15.20;99.90
20446;DHT22;10382;49.140;9.234;2023-10-19T07:11:41;15.30;99.90
20446;DHT22;10382;49.140;9.234;2023-10-19T07:14:10;15.40;99.90
20446;DHT22;10382;49.140;9.234;2023-10-19T07:16:39;15.40;99.90
20446;DHT22;10382;49.140;9.234;2023-10-19T07:19:07;15.40;99.90
20446;DHT22;10382;49.140;9.234;2023-10-19T07:21:35;15.50;99.90
20446;DHT22;10382;49.140;9.234;2023-10-19T07:24:04;15.50;99.90
20446;DHT22;10382;49.140;9.234;2023-10-19T07:26:34;15.50;99.90
20446;DHT22;10382;49.140;9.234;2023-10-19T07:29:09;15.60;99.90
20446;DHT22;10382;49.140;9.234;2023-10-19T07:31:40;15.70;99.90
20446;DHT22;10382;49.140;9.234;2023-10-19T07:34:08;15.70;99.90
20446;DHT22;10382;49.140;9.234;2023-10-19T07:36:38;15.90;99.90
20446;DHT22;10382;49.140;9.234;2023-10-19T07:39:05;15.90;99.90
20446;DHT22;10382;49.140;9.234;2023-10-19T07:41:39;16.00;99.90
20446;DHT22;10382;49.140;9.234;2023-10-19T07:44:06;16.00;99.90
20446;DHT22;10382;49.140;9.234;2023-10-19T07:46:33;16.10;99.90
20446;DHT22;10382;49.140;9.234;2023-10-19T07:49:00;16.20;99.90
20446;DHT22;10382;49.140;9.234;2023-10-19T07:51:30;16.20;99.90
20446;DHT22;10382;49.140;9.234;2023-10-19T07:53:56;16.30;99.90
20446;DHT22;10382;49.140;9.234;2023-10-19T07:56:23;16.40;99.90
20446;DHT22;10382;49.140;9.234;2023-10-19T07:58:50;16.50;99.90
20446;DHT22;10382;49.140;9.234;2023-10-19T08:01:17;16.60;99.90
20446;DHT22;10382;49.140;9.234;2023-10-19T08:03:44;16.70;99.90
20446;DHT22;10382;49.140;9.234;2023-10-19T08:06:11;16.80;99.90
20446;DHT22;10382;49.140;9.234;2023-10-19T08:08:39;16.90;99.90
20446;DHT22;10382;49.140;9.234;2023-10-19T08:11:07;16.90;99.90
20446;DHT22;10382;49.140;9.234;2023-10-19T08:13:35;17.00;99.90
20446;DHT22;10382;49.140;9.234;2023-10-19T08:16:02;17.10;99.90
20446;DHT22;10382;49.140;9.234;2023-10-19T08:18:29;17.10;99.90
20446;DHT22;10382;49.140;9.234;2023-10-19T08:20:57;17.20;99.90
20446;DHT22;10382;49.140;9.234;2023-10-19T08:23:24;17.40;99.90
20446;DHT22;10382;49.140;9.234;2023-10-19T08:25:54;17.50;99.90
20446;DHT22;10382;49.140;9.234;2023-10-19T08:28:21;17.70;99.90
20446;DHT22;10382;49.140;9.234;2023-10-19T08:30:48;17.80;99.90
20446;DHT22;10382;49.140;9.234;2023-10-19T08:33:23;18.00;99.90
20446;DHT22;10382;49.140;9.234;2023-10-19T08:35:52;18.00;99.90
20446;DHT22;10382;49.140;9.234;2023-10-19T08:38:19;18.10;99.90
20446;DHT22;10382;49.140;9.234;2023-10-19T08:40:47;18.30;99.90
20446;DHT22;10382;49.140;9.234;2023-10-19T08:43:16;18.80;99.90
20446;DHT22;10382;49.140;9.234;2023-10-19T08:45:44;19.80;99.90
20446;DHT22;10382;49.140;9.234;2023-10-19T08:48:12;21.10;99.90
20446;DHT22;10382;49.140;9.234;2023-10-19T08:50:39;22.10;99.90
20446;DHT22;10382;49.140;9.234;2023-10-19T08:53:07;23.00;99.90
20446;DHT22;10382;49.140;9.234;2023-10-19T08:55:35;24.00;99.90
20446;DHT22;10382;49.140;9.234;2023-10-19T08:58:02;24.80;99.90
20446;DHT22;10382;49.140;9.234;2023-10-19T09:00:43;25.00;99.90
20446;DHT22;10382;49.140;9.234;2023-10-19T09:03:13;25.10;99.90
20446;DHT22;10382;49.140;9.234;2023-10-19T09:05:42;25.00;99.90
20446;DHT22;10382;49.140;9.234;2023-10-19T09:08:14;25.20;99.90
20446;DHT22;10382;49.140;9.234;2023-10-19T09:10:43;25.70;99.90
20446;DHT22;10382;49.140;9.234;2023-10-19T09:13:11;26.50;99.90
20446;DHT22;10382;49.140;9.234;2023-10-19T09:15:42;27.20;99.90
20446;DHT22;10382;49.140;9.234;2023-10-19T09:18:13;27.90;99.90
20446;DHT22;10382;49.140;9.234;2023-10-19T09:20:41;28.50;99.90
20446;DHT22;10382;49.140;9.234;2023-10-19T09:23:18;29.10;99.90
20446;DHT22;10382;49.140;9.234;2023-10-19T09:25:47;29.70;99.90
20446;DHT22;10382;49.140;9.234;2023-10-19T09:28:13;30.00;98.70
20446;DHT22;10382;49.140;9.234;2023-10-19T09:30:43;30.20;96.70
20446;DHT22;10382;49.140;9.234;2023-10-19T09:33:10;30.40;95.30
20446;DHT22;10382;49.140;9.234;2023-10-19T09:35:40;30.30;94.50
20446;DHT22;10382;49.140;9.234;2023-10-19T09:38:08;30.30;94.10
20446;DHT22;10382;49.140;9.234;2023-10-19T09:40:36;30.10;93.70
20446;DHT22;10382;49.140;9.234;2023-10-19T09:43:05;29.90;93.10
20446;DHT22;10382;49.140;9.234;2023-10-19T09:45:37;29.70;93.80
20446;DHT22;10382;49.140;9.234;2023-10-19T09:48:08;29.30;94.20
20446;DHT22;10382;49.140;9.234;2023-10-19T09:50:43;28.70;95.10
20446;DHT22;10382;49.140;9.234;2023-10-19T09:53:11;28.10;96.10
20446;DHT22;10382;49.140;9.234;2023-10-19T09:55:41;27.60;97.70
20446;DHT22;10382;49.140;9.234;2023-10-19T09:58:12;27.10;98.80
20446;DHT22;10382;49.140;9.234;2023-10-19T10:00:43;26.70;99.90
20446;DHT22;10382;49.140;9.234;2023-10-19T10:03:49;26.60;99.90
20446;DHT22;10382;49.140;9.234;2023-10-19T10:06:18;26.60;99.90
20446;DHT22;10382;49.140;9.234;2023-10-19T10:08:53;26.50;99.90
20446;DHT22;10382;49.140;9.234;2023-10-19T10:11:22;26.70;99.90
20446;DHT22;10382;49.140;9.234;2023-10-19T10:13:50;27.20;99.90
20446;DHT22;10382;49.140;9.234;2023-10-19T10:16:22;27.70;99.90
20446;DHT22;10382;49.140;9.234;2023-10-19T10:18:53;28.30;99.90
20446;DHT22;10382;49.140;9.234;2023-10-19T10:21:22;28.50;99.90
20446;DHT22;10382;49.140;9.234;2023-10-19T10:23:52;28.70;99.70
20446;DHT22;10382;49.140;9.234;2023-10-19T10:26:21;28.90;99.10
20446;DHT22;10382;49.140;9.234;2023-10-19T10:29:12;29.00;98.80
20446;DHT22;10382;49.140;9.234;2023-10-19T10:31:43;28.90;98.30
20446;DHT22;10382;49.140;9.234;2023-10-19T10:34:41;28.50;98.60
20446;DHT22;10382;49.140;9.234;2023-10-19T10:37:10;27.90;99.90
20446;DHT22;10382;49.140;9.234;2023-10-19T10:39:39;27.30;99.90
20446;DHT22;10382;49.140;9.234;2023-10-19T10:42:08;26.80;99.90
20446;DHT22;10382;49.140;9.234;2023-10-19T10:44:36;26.20;99.90
20446;DHT22;10382;49.140;9.234;2023-10-19T10:47:05;25.60;99.90
20446;DHT22;10382;49.140;9.234;2023-10-19T10:49:35;25.10;99.90
20446;DHT22;10382;49.140;9.234;2023-10-19T10:52:12;24.70;99.90
20446;DHT22;10382;49.140;9.234;2023-10-19T10:54:38;24.30;99.90
20446;DHT22;10382;49.140;9.234;2023-10-19T10:57:06;23.90;99.90
20446;DHT22;10382;49.140;9.234;2023-10-19T10:59:33;23.60;99.90
20446;DHT22;10382;49.140;9.234;2023-10-19T11:02:00;23.30;99.90
20446;DHT22;10382;49.140;9.234;2023-10-19T11:04:27;23.20;99.90
20446;DHT22;10382;49.140;9.234;2023-10-19T11:06:55;23.10;99.90
20446;DHT22;10382;49.140;9.234;2023-10-19T11:09:22;23.00;99.90
20446;DHT22;10382;49.140;9.234;2023-10-19T11:11:50;22.90;99.90
20446;DHT22;10382;49.140;9.234;2023-10-19T11:14:17;23.00;99.90
20446;DHT22;10382;49.140;9.234;2023-10-19T11:16:44;22.90;99.90
20446;DHT22;10382;49.140;9.234;2023-10-19T11:19:11;23.00;99.90
20446;DHT22;10382;49.140;9.234;2023-10-19T11:21:38;23.00;99.90
20446;DHT22;10382;49.140;9.234;2023-10-19T11:24:25;23.00;99.90
20446;DHT22;10382;49.140;9.234;2023-10-19T11:26:54;23.00;99.90
20446;DHT22;10382;49.140;9.234;2023-10-19T11:29:21;22.90;99.90
20446;DHT22;10382;49.140;9.234;2023-10-19T11:31:57;22.70;99.90
20446;DHT22;10382;49.140;9.234;2023-10-19T11:34:24;22.40;99.90
20446;DHT22;10382;49.140;9.234;2023-10-19T11:36:53;22.10;99.90
20446;DHT22;10382;49.140;9.234;2023-10-19T11:39:21;21.70;99.90
20446;DHT22;10382;49.140;9.234;2023-10-19T11:41:50;21.30;99.90
20446;DHT22;10382;49.140;9.234;2023-10-19T11:44:18;21.20;99.90
20446;DHT22;10382;49.140;9.234;2023-10-19T11:46:46;21.00;99.90
20446;DHT22;10382;49.140;9.234;2023-10-19T11:49:14;21.00;99.90
20446;DHT22;10382;49.140;9.234;2023-10-19T11:51:40;21.00;99.90
20446;DHT22;10382;49.140;9.234;2023-10-19T11:54:09;21.00;99.90
20446;DHT22;10382;49.140;9.234;2023-10-19T11:56:36;20.80;99.90
20446;DHT22;10382;49.140;9.234;2023-10-19T11:59:04;20.70;99.90
20446;DHT22;10382;49.140;9.234;2023-10-19T12:01:32;20.40;99.90
20446;DHT22;10382;49.140;9.234;2023-10-19T12:03:59;20.30;99.90
20446;DHT22;10382;49.140;9.234;2023-10-19T12:06:26;20.30;99.90
20446;DHT22;10382;49.140;9.234;2023-10-19T12:08:54;20.20;99.90
20446;DHT22;10382;49.140;9.234;2023-10-19T12:11:24;19.90;99.90
20446;DHT22;10382;49.140;9.234;2023-10-19T12:13:51;19.80;99.90
20446;DHT22;10382;49.140;9.234;2023-10-19T12:16:20;19.60;99.90
20446;DHT22;10382;49.140;9.234;2023-10-19T12:18:49;19.60;99.90
20446;DHT22;10382;49.140;9.234;2023-10-19T12:21:16;19.40;99.90
20446;DHT22;10382;49.140;9.234;2023-10-19T12:23:53;19.20;99.90
20446;DHT22;10382;49.140;9.234;2023-10-19T12:26:22;19.10;99.90
20446;DHT22;10382;49.140;9.234;2023-10-19T12:28:48;19.00;99.90
20446;DHT22;10382;49.140;9.234;2023-10-19T12:31:15;18.80;99.90
20446;DHT22;10382;49.140;9.234;2023-10-19T12:33:45;18.70;99.90
20446;DHT22;10382;49.140;9.234;2023-10-19T12:36:12;18.60;99.90
20446;DHT22;10382;49.140;9.234;2023-10-19T12:38:57;18.70;99.90
20446;DHT22;10382;49.140;9.234;2023-10-19T12:41:24;18.60;99.90
20446;DHT22;10382;49.140;9.234;2023-10-19T12:43:51;18.60;99.90
20446;DHT22;10382;49.140;9.234;2023-10-19T12:46:23;18.60;99.90
20446;DHT22;10382;49.140;9.234;2023-10-19T12:48:52;18.60;99.90
20446;DHT22;10382;49.140;9.234;2023-10-19T12:51:20;18.40;99.90
20446;DHT22;10382;49.140;9.234;2023-10-19T12:53:50;18.30;99.90
20446;DHT22;10382;49.140;9.234;2023-10-19T12:56:17;18.20;99.90
20446;DHT22;10382;49.140;9.234;2023-10-19T12:58:44;18.30;99.90
20446;DHT22;10382;49.140;9.234;2023-10-19T13:01:11;18.30;99.90
20446;DHT22;10382;49.140;9.234;2023-10-19T13:03:43;18.40;99.90
20446;DHT22;10382;49.140;9.234;2023-10-19T13:06:12;18.40;99.90
20446;DHT22;10382;49.140;9.234;2023-10-19T13:08:39;18.50;99.90
20446;DHT22;10382;49.140;9.234;2023-10-19T13:11:06;18.70;99.90
20446;DHT22;10382;49.140;9.234;2023-10-19T13:13:33;18.80;99.90
20446;DHT22;10382;49.140;9.234;2023-10-19T13:16:02;19.00;99.90
20446;DHT22;10382;49.140;9.234;2023-10-19T13:18:31;19.10;99.90
20446;DHT22;10382;49.140;9.234;2023-10-19T13:20:59;19.20;99.90
20446;DHT22;10382;49.140;9.234;2023-10-19T13:23:31;19.30;99.90
20446;DHT22;10382;49.140;9.234;2023-10-19T13:25:59;19.40;99.90
20446;DHT22;10382;49.140;9.234;2023-10-19T13:28:35;19.40;99.90
20446;DHT22;10382;49.140;9.234;2023-10-19T13:31:03;19.40;99.90
20446;DHT22;10382;49.140;9.234;2023-10-19T13:33:30;19.40;99.90
20446;DHT22;10382;49.140;9.234;2023-10-19T13:35:57;19.30;99.90
20446;DHT22;10382;49.140;9.234;2023-10-19T13:38:24;19.20;99.90
20446;DHT22;10382;49.140;9.234;2023-10-19T13:40:52;19.10;99.90
20446;DHT22;10382;49.140;9.234;2023-10-19T13:43:19;18.90;99.90
20446;DHT22;10382;49.140;9.234;2023-10-19T13:45:47;18.70;99.90
20446;DHT22;10382;49.140;9.234;2023-10-19T13:48:14;18.50;99.90
20446;DHT22;10382;49.140;9.234;2023-10-19T13:50:43;18.30;99.90
20446;DHT22;10382;49.140;9.234;2023-10-19T13:53:11;18.30;99.90
20446;DHT22;10382;49.140;9.234;2023-10-19T13:55:38;18.20;99.90
20446;DHT22;10382;49.140;9.234;2023-10-19T13:58:06;18.30;99.90
20446;DHT22;10382;49.140;9.234;2023-10-19T14:00:33;18.30;99.90
20446;DHT22;10382;49.140;9.234;2023-10-19T14:03:06;18.30;99.90
20446;DHT22;10382;49.140;9.234;2023-10-19T14:05:36;18.50;99.90
20446;DHT22;10382;49.140;9.234;2023-10-19T14:08:03;18.40;99.90
20446;DHT22;10382;49.140;9.234;2023-10-19T14:10:30;18.40;99.90
20446;DHT22;10382;49.140;9.234;2023-10-19T14:12:57;18.40;99.90
20446;DHT22;10382;49.140;9.234;2023-10-19T14:15:25;18.40;99.90
20446;DHT22;10382;49.140;9.234;2023-10-19T14:17:55;18.40;99.90
20446;DHT22;10382;49.140;9.234;2023-10-19T14:20:24;18.40;99.90
20446;DHT22;10382;49.140;9.234;2023-10-19T14:22:51;18.40;99.90
20446;DHT22;10382;49.140;9.234;2023-10-19T14:25:19;18.50;99.90
20446;DHT22;10382;49.140;9.234;2023-10-19T14:27:48;18.30;99.90
20446;DHT22;10382;49.140;9.234;2023-10-19T14:30:17;18.30;99.90
20446;DHT22;10382;49.140;9.234;2023-10-19T14:32:46;18.40;99.90
20446;DHT22;10382;49.140;9.234;2023-10-19T14:35:14;18.30;99.90
20446;DHT22;10382;49.140;9.234;2023-10-19T14:37:42;18.20;99.90
20446;DHT22;10382;49.140;9.234;2023-10-19T14:40:10;18.10;99.90
20446;DHT22;10382;49.140;9.234;2023-10-19T14:42:38;18.10;99.90
20446;DHT22;10382;49.140;9.234;2023-10-19T14:45:08;18.10;99.90
20446;DHT22;10382;49.140;9.234;2023-10-19T14:47:37;18.10;99.90
20446;DHT22;10382;49.140;9.234;2023-10-19T14:50:10;18.10;99.90
20446;DHT22;10382;49.140;9.234;2023-10-19T14:52:39;18.10;99.90
20446;DHT22;10382;49.140;9.234;2023-10-19T14:55:07;18.00;99.90
20446;DHT22;10382;49.140;9.234;2023-10-19T14:57:35;18.10;99.90
20446;DHT22;10382;49.140;9.234;2023-10-19T15:00:04;18.10;99.90
20446;DHT22;10382;49.140;9.234;2023-10-19T15:02:41;18.00;99.90
20446;DHT22;10382;49.140;9.234;2023-10-19T15:05:09;17.90;99.90
20446;DHT22;10382;49.140;9.234;2023-10-19T15:07:40;17.70;99.90
20446;DHT22;10382;49.140;9.234;2023-10-19T15:10:08;17.60;99.90
20446;DHT22;10382;49.140;9.234;2023-10-19T15:12:37;17.30;99.90
20446;DHT22;10382;49.140;9.234;2023-10-19T15:15:05;17.10;99.90
20446;DHT22;10382;49.140;9.234;2023-10-19T15:17:33;16.90;99.90
20446;DHT22;10382;49.140;9.234;2023-10-19T15:20:00;16.90;99.90
20446;DHT22;10382;49.140;9.234;2023-10-19T15:22:28;17.00;99.90
20446;DHT22;10382;49.140;9.234;2023-10-19T15:24:56;17.10;99.90
20446;DHT22;10382;49.140;9.234;2023-10-19T15:27:23;17.10;99.90
20446;DHT22;10382;49.140;9.234;2023-10-19T15:29:50;17.00;99.90
20446;DHT22;10382;49.140;9.234;2023-10-19T15:32:17;17.20;99.90
20446;DHT22;10382;49.140;9.234;2023-10-19T15:34:45;17.30;99.90
20446;DHT22;10382;49.140;9.234;2023-10-19T15:37:12;17.40;99.90
20446;DHT22;10382;49.140;9.234;2023-10-19T15:39:40;17.30;99.90
20446;DHT22;10382;49.140;9.234;2023-10-19T15:42:08;17.30;99.90